createdAt,value
2022-10-11T00:00:58.690Z,100732.77
2022-10-11T00:03:35.108Z,100730.71
2022-10-11T00:06:05.861Z,100727.63
2022-10-11T00:08:34.421Z,100729.98
2022-10-11T00:11:06.054Z,100731.14
2022-10-11T00:13:35.004Z,100731.29
2022-10-11T00:16:08.698Z,100734.80
2022-10-11T00:18:36.797Z,100732.08
2022-10-11T00:21:08.494Z,100732.91
2022-10-11T00:23:37.283Z,100733.90
2022-10-11T00:26:07.935Z,100737.25
2022-10-11T00:28:36.965Z,100735.69
2022-10-11T00:31:10.408Z,100738.54
2022-10-11T00:33:38.473Z,100740.05
2022-10-11T00:36:08.760Z,100738.49
2022-10-11T00:38:37.071Z,100730.34
2022-10-11T00:41:05.039Z,100727.61
2022-10-11T00:43:34.243Z,100731.33
2022-10-11T00:46:08.139Z,100729.92
2022-10-11T00:49:04.474Z,100730.08
2022-10-11T00:51:35.339Z,100726.15
2022-10-11T00:54:03.927Z,100724.25
2022-10-11T00:56:36.986Z,100724.88
2022-10-11T00:59:12.628Z,100720.46
2022-10-11T01:01:40.981Z,100720.11
2022-10-11T01:04:08.878Z,100716.95
2022-10-11T01:06:36.880Z,100717.83
2022-10-11T01:09:04.909Z,100713.05
2022-10-11T01:11:42.787Z,100712.21
2022-10-11T01:14:47.852Z,100709.69
2022-10-11T01:17:21.343Z,100707.79
2022-10-11T01:20:09.895Z,100704.20
2022-10-11T01:23:16.365Z,100699.42
2022-10-11T01:25:49.867Z,100697.54
2022-10-11T01:28:25.430Z,100696.85
2022-10-11T01:30:57.462Z,100697.36
2022-10-11T01:33:48.008Z,100703.88
2022-10-11T01:36:34.399Z,100700.85
2022-10-11T01:39:04.819Z,100694.42
2022-10-11T01:41:39.372Z,100696.85
2022-10-11T01:44:09.567Z,100691.64
2022-10-11T01:46:37.608Z,100692.40
2022-10-11T01:49:05.997Z,100691.79
2022-10-11T01:51:38.151Z,100687.80
2022-10-11T01:54:13.938Z,100692.80
2022-10-11T01:57:07.364Z,100694.91
2022-10-11T01:59:57.968Z,100689.20
2022-10-11T02:03:03.817Z,100685.86
2022-10-11T02:05:48.548Z,100685.94
2022-10-11T02:08:50.548Z,100686.33
2022-10-11T02:11:29.302Z,100684.81
2022-10-11T02:14:25.570Z,100685.89
2022-10-11T02:17:04.222Z,100684.59
2022-10-11T02:19:38.640Z,100683.98
2022-10-11T02:22:10.417Z,100682.02
2022-10-11T02:24:42.015Z,100683.09
2022-10-11T02:27:11.481Z,100678.04
2022-10-11T02:29:43.826Z,100678.94
2022-10-11T02:32:12.913Z,100678.65
2022-10-11T02:34:47.476Z,100676.67
2022-10-11T02:37:26.873Z,100681.67
2022-10-11T02:40:01.497Z,100685.32
2022-10-11T02:42:36.631Z,100684.19
2022-10-11T02:45:34.753Z,100683.72
2022-10-11T02:48:03.696Z,100687.65
2022-10-11T02:50:31.773Z,100690.58
2022-10-11T02:52:59.528Z,100689.79
2022-10-11T02:55:27.396Z,100687.95
2022-10-11T02:57:55.163Z,100690.20
2022-10-11T03:00:23.026Z,100689.37
2022-10-11T03:02:50.888Z,100689.89
2022-10-11T03:05:18.807Z,100696.41
2022-10-11T03:07:46.752Z,100699.84
2022-10-11T03:10:14.760Z,100698.67
2022-10-11T03:12:42.655Z,100695.69
2022-10-11T03:15:10.932Z,100696.27
2022-10-11T03:17:38.832Z,100696.84
2022-10-11T03:20:07.607Z,100701.98
2022-10-11T03:22:35.757Z,100699.31
2022-10-11T03:25:04.873Z,100708.54
2022-10-11T03:27:34.124Z,100707.88
2022-10-11T03:30:02.434Z,100702.96
2022-10-11T03:32:30.615Z,100710.46
2022-10-11T03:34:58.465Z,100714.06
2022-10-11T03:37:27.080Z,100706.23
2022-10-11T03:39:54.819Z,100707.27
2022-10-11T03:42:22.580Z,100710.00
2022-10-11T03:44:52.118Z,100719.36
2022-10-11T03:47:20.252Z,100726.66
2022-10-11T03:49:48.046Z,100728.54
2022-10-11T03:52:15.800Z,100731.25
2022-10-11T03:54:43.848Z,100731.06
2022-10-11T03:57:11.608Z,100734.45
2022-10-11T03:59:39.373Z,100734.61
2022-10-11T04:02:07.360Z,100736.48
2022-10-11T04:04:35.411Z,100733.05
2022-10-11T04:07:03.593Z,100726.55
2022-10-11T04:09:31.403Z,100730.27
2022-10-11T04:11:59.424Z,100722.41
2022-10-11T04:14:27.508Z,100728.02
2022-10-11T04:16:59.538Z,100726.98
2022-10-11T04:19:28.275Z,100729.36
2022-10-11T04:21:56.018Z,100728.66
2022-10-11T04:24:23.766Z,100735.45
2022-10-11T04:26:51.567Z,100735.06
2022-10-11T04:29:19.309Z,100737.44
2022-10-11T04:31:47.155Z,100742.52
2022-10-11T04:34:15.024Z,100743.86
2022-10-11T04:36:45.298Z,100750.16
2022-10-11T04:39:17.102Z,100760.33
2022-10-11T04:41:45.067Z,100767.61
2022-10-11T04:44:12.793Z,100768.62
2022-10-11T04:46:40.595Z,100765.55
2022-10-11T04:49:08.972Z,100764.84
2022-10-11T04:51:36.835Z,100766.37
2022-10-11T04:54:04.701Z,100768.41
2022-10-11T04:56:32.572Z,100764.85
2022-10-11T04:59:00.336Z,100764.50
2022-10-11T05:01:28.098Z,100763.64
2022-10-11T05:03:55.960Z,100772.34
2022-10-11T05:06:24.400Z,100779.31
2022-10-11T05:08:52.424Z,100790.89
2022-10-11T05:11:20.686Z,100792.25
2022-10-11T05:13:48.494Z,100786.83
2022-10-11T05:16:16.892Z,100795.85
2022-10-11T05:18:45.083Z,100794.00
2022-10-11T05:21:20.047Z,100804.58
2022-10-11T05:23:49.904Z,100808.18
2022-10-11T05:26:19.319Z,100799.04
2022-10-11T05:28:48.110Z,100799.91
2022-10-11T05:31:16.928Z,100799.92
2022-10-11T05:33:45.095Z,100805.20
2022-10-11T05:36:13.270Z,100807.09
2022-10-11T05:38:41.204Z,100806.25
2022-10-11T05:41:09.492Z,100810.54
2022-10-11T05:43:37.781Z,100812.95
2022-10-11T05:46:06.855Z,100814.50
2022-10-11T05:48:35.072Z,100815.73
2022-10-11T05:51:05.648Z,100824.60
2022-10-11T05:53:33.515Z,100824.14
2022-10-11T05:56:01.833Z,100821.65
2022-10-11T05:58:29.879Z,100825.46
2022-10-11T06:00:57.970Z,100831.86
2022-10-11T06:03:25.829Z,100837.22
2022-10-11T06:05:56.991Z,100841.55
2022-10-11T06:08:25.215Z,100851.19
2022-10-11T06:10:53.121Z,100850.25
2022-10-11T06:13:20.876Z,100859.19
2022-10-11T06:15:48.756Z,100862.15
2022-10-11T06:18:16.528Z,100865.30
2022-10-11T06:20:44.269Z,100870.29
2022-10-11T06:23:12.346Z,100871.72
2022-10-11T06:25:40.424Z,100881.71
2022-10-11T06:28:08.243Z,100887.73
2022-10-11T06:30:36.140Z,100892.05
2022-10-11T06:33:05.060Z,100898.58
2022-10-11T06:35:33.001Z,100899.30
2022-10-11T06:38:00.781Z,100900.20
2022-10-11T06:40:28.534Z,100901.77
2022-10-11T06:42:56.495Z,100908.45
2022-10-11T06:45:24.356Z,100912.05
2022-10-11T06:47:52.124Z,100916.34
2022-10-11T06:50:34.799Z,100923.88
2022-10-11T06:53:08.485Z,100923.88
2022-10-11T06:55:36.301Z,100935.32
2022-10-11T06:58:04.167Z,100939.40
2022-10-11T07:00:32.027Z,100945.70
2022-10-11T07:03:00.567Z,100955.94
2022-10-11T07:05:29.707Z,100962.76
2022-10-11T07:07:57.434Z,100962.77
2022-10-11T07:10:25.208Z,100963.60
2022-10-11T07:12:53.242Z,100969.59
2022-10-11T07:15:21.285Z,100970.78
2022-10-11T07:17:49.013Z,100974.88
2022-10-11T07:20:16.847Z,100980.69
2022-10-11T07:22:44.565Z,100982.27
2022-10-11T07:25:12.334Z,100986.71
2022-10-11T07:27:40.091Z,100991.35
2022-10-11T07:30:08.376Z,100995.30
2022-10-11T07:32:36.097Z,100997.39
2022-10-11T07:35:04.150Z,101002.38
2022-10-11T07:37:33.250Z,101008.89
2022-10-11T07:40:01.273Z,101009.28
2022-10-11T07:42:29.024Z,101014.45
2022-10-11T07:44:57.095Z,101013.11
2022-10-11T07:47:24.863Z,101018.09
2022-10-11T07:49:52.981Z,101016.91
2022-10-11T07:52:20.739Z,101025.29
2022-10-11T07:54:49.646Z,101027.34
2022-10-11T07:57:17.445Z,101030.23
2022-10-11T07:59:50.004Z,101032.61
2022-10-11T08:02:18.192Z,101033.63
2022-10-11T08:04:45.961Z,101036.02
2022-10-11T08:07:14.033Z,101038.05
2022-10-11T08:09:41.789Z,101037.04
2022-10-11T08:12:10.154Z,101041.82
2022-10-11T08:14:37.983Z,101044.23
2022-10-11T08:17:05.773Z,101044.60
2022-10-11T08:19:34.112Z,101046.52
2022-10-11T08:22:02.055Z,101053.35
2022-10-11T08:24:31.064Z,101055.42
2022-10-11T08:27:01.362Z,101058.87
2022-10-11T08:29:29.322Z,101058.39
2022-10-11T08:31:57.198Z,101054.99
2022-10-11T08:34:25.267Z,101058.94
2022-10-11T08:36:53.130Z,101053.34
2022-10-11T08:39:21.440Z,101057.46
2022-10-11T08:42:02.373Z,101061.21
2022-10-11T08:45:10.052Z,101060.20
2022-10-11T08:47:42.322Z,101064.65
2022-10-11T08:50:20.547Z,101066.37
2022-10-11T08:52:53.899Z,101063.82
2022-10-11T08:55:45.157Z,101065.20
2022-10-11T08:58:16.626Z,101066.75
2022-10-11T09:00:47.085Z,101064.35
2022-10-11T09:03:38.157Z,101067.95
2022-10-11T09:06:21.572Z,101072.39
2022-10-11T09:09:20.722Z,101074.42
2022-10-11T09:11:51.194Z,101077.17
2022-10-11T09:14:40.419Z,101076.31
2022-10-11T09:17:32.598Z,101080.59
2022-10-11T09:20:30.364Z,101083.14
2022-10-11T09:23:28.536Z,101086.40
2022-10-11T09:26:05.536Z,101093.77
2022-10-11T09:28:41.984Z,101096.85
2022-10-11T09:31:11.696Z,101097.03
2022-10-11T09:33:45.395Z,101095.67
2022-10-11T09:36:28.557Z,101094.31
2022-10-11T09:39:06.481Z,101099.61
2022-10-11T09:41:59.269Z,101098.23
2022-10-11T09:44:35.536Z,101104.05
2022-10-11T09:47:04.934Z,101110.20
2022-10-11T09:49:42.839Z,101111.38
2022-10-11T09:52:20.121Z,101115.49
2022-10-11T09:54:51.571Z,101119.42
2022-10-11T09:57:29.895Z,101113.95
2022-10-11T10:00:02.296Z,101118.40
2022-10-11T10:02:39.241Z,101118.25
2022-10-11T10:05:07.202Z,101112.45
2022-10-11T10:07:36.298Z,101110.42
2022-10-11T10:10:41.607Z,101114.88
2022-10-11T10:13:29.254Z,101120.35
2022-10-11T10:16:00.216Z,101121.03
2022-10-11T10:18:36.402Z,101126.86
2022-10-11T10:21:11.977Z,101126.66
2022-10-11T10:23:45.375Z,101124.27
2022-10-11T10:26:21.498Z,101127.20
2022-10-11T10:29:11.460Z,101125.13
2022-10-11T10:32:13.891Z,101124.03
2022-10-11T10:35:08.422Z,101131.52
2022-10-11T10:37:54.501Z,101133.35
2022-10-11T10:40:43.910Z,101135.05
2022-10-11T10:43:20.707Z,101141.91
2022-10-11T10:46:10.671Z,101140.86
2022-10-11T10:49:41.250Z,101137.21
2022-10-11T10:55:17.059Z,101150.51
2022-10-11T10:58:15.084Z,101143.75
2022-10-11T11:01:03.389Z,101144.09
2022-10-11T11:03:49.993Z,101151.75
2022-10-11T11:06:39.478Z,101153.87
2022-10-11T11:09:42.449Z,101154.48
2022-10-11T11:12:27.169Z,101153.14
2022-10-11T11:15:07.350Z,101155.48
2022-10-11T11:18:02.198Z,101158.58
2022-10-11T11:20:44.079Z,101166.36
2022-10-11T11:23:29.370Z,101162.45
2022-10-11T11:26:27.356Z,101172.86
2022-10-11T11:29:18.007Z,101171.42
2022-10-11T11:31:59.456Z,101174.36
2022-10-11T11:34:49.854Z,101170.91
2022-10-11T11:37:32.875Z,101167.92
2022-10-11T11:40:16.773Z,101164.26
2022-10-11T11:43:00.798Z,101167.11
2022-10-11T11:45:49.151Z,101175.19
2022-10-11T11:48:26.898Z,101174.23
2022-10-11T11:51:16.219Z,101172.25
2022-10-11T11:54:29.724Z,101171.96
2022-10-11T11:57:29.621Z,101175.16
2022-10-11T12:00:06.510Z,101177.13
2022-10-11T12:03:04.197Z,101176.50
2022-10-11T12:05:36.904Z,101186.46
2022-10-11T12:08:28.021Z,101183.39
2022-10-11T12:11:20.499Z,101180.11
2022-10-11T12:14:00.954Z,101181.44
2022-10-11T12:16:32.687Z,101180.70
2022-10-11T12:19:30.455Z,101184.11
2022-10-11T12:22:40.716Z,101183.38
2022-10-11T12:28:53.131Z,101197.71
2022-10-11T12:31:34.799Z,101193.86
2022-10-11T12:34:13.055Z,101192.83
2022-10-11T12:36:48.087Z,101189.89
2022-10-11T12:39:26.500Z,101190.01
2022-10-11T12:42:19.497Z,101191.69
2022-10-11T12:45:15.367Z,101194.92
2022-10-11T12:48:08.006Z,101190.08
2022-10-11T12:51:05.288Z,101191.05
2022-10-11T12:53:33.791Z,101190.64
2022-10-11T12:56:19.819Z,101199.00
2022-10-11T12:58:50.633Z,101204.85
2022-10-11T13:01:46.233Z,101205.76
2022-10-11T13:04:40.677Z,101215.51
2022-10-11T13:07:25.964Z,101217.27
2022-10-11T13:09:56.106Z,101218.48
2022-10-11T13:12:48.832Z,101217.52
2022-10-11T13:15:26.177Z,101218.86
2022-10-11T13:18:07.279Z,101221.35
2022-10-11T13:20:42.630Z,101222.27
2022-10-11T13:23:30.487Z,101219.42
2022-10-11T13:26:05.690Z,101217.86
2022-10-11T13:29:01.741Z,101217.48
2022-10-11T13:31:43.762Z,101217.10
2022-10-11T13:34:23.055Z,101222.43
2022-10-11T13:37:01.755Z,101221.21
2022-10-11T13:39:42.084Z,101222.35
2022-10-11T13:42:16.537Z,101219.92
2022-10-11T13:44:47.156Z,101222.84
2022-10-11T13:47:18.842Z,101230.09
2022-10-11T13:49:53.357Z,101231.83
2022-10-11T13:52:24.237Z,101232.35
2022-10-11T13:55:11.614Z,101231.48
2022-10-11T13:57:45.511Z,101229.77
2022-10-11T14:00:16.649Z,101237.50
2022-10-11T14:03:01.817Z,101236.65
2022-10-11T14:05:29.989Z,101233.55
2022-10-11T14:08:02.052Z,101233.41
2022-10-11T14:10:30.328Z,101232.77
2022-10-11T14:13:23.929Z,101236.72
2022-10-11T14:16:29.134Z,101236.06
2022-10-11T14:19:00.381Z,101240.23
2022-10-11T14:21:28.168Z,101239.08
2022-10-11T14:23:59.798Z,101238.94
2022-10-11T14:26:35.694Z,101237.73
2022-10-11T14:29:27.172Z,101233.98
2022-10-11T14:32:08.428Z,101235.02
2022-10-11T14:34:37.033Z,101237.43
2022-10-11T14:37:05.310Z,101241.21
2022-10-11T14:39:33.686Z,101242.77
2022-10-11T14:42:01.859Z,101245.86
2022-10-11T14:44:29.724Z,101245.35
2022-10-11T14:46:57.490Z,101248.63
2022-10-11T14:49:30.704Z,101246.75
2022-10-11T14:51:59.284Z,101248.45
2022-10-11T14:54:29.001Z,101249.14
2022-10-11T14:56:59.501Z,101247.45
2022-10-11T14:59:34.658Z,101254.30
2022-10-11T15:02:04.305Z,101259.27
2022-10-11T15:04:32.214Z,101257.55
2022-10-11T15:07:00.105Z,101258.41
2022-10-11T15:09:28.349Z,101261.81
2022-10-11T15:11:57.102Z,101263.84
2022-10-11T15:14:25.793Z,101265.36
2022-10-11T15:16:55.019Z,101270.84
2022-10-11T15:19:25.075Z,101265.69
2022-10-11T15:21:53.007Z,101268.59
2022-10-11T15:24:20.934Z,101272.67
2022-10-11T15:26:49.251Z,101273.50
2022-10-11T15:29:18.058Z,101274.51
2022-10-11T15:31:46.714Z,101277.04
2022-10-11T15:34:14.697Z,101278.38
2022-10-11T15:36:42.654Z,101279.04
2022-10-11T15:39:43.084Z,101281.39
2022-10-11T15:42:10.873Z,101284.40
2022-10-11T15:44:38.658Z,101286.92
2022-10-11T15:47:06.474Z,101291.16
2022-10-11T15:49:34.209Z,101295.55
2022-10-11T15:52:02.101Z,101299.79
2022-10-11T15:54:30.480Z,101306.77
2022-10-11T15:56:58.960Z,101308.24
2022-10-11T15:59:27.030Z,101311.10
2022-10-11T16:01:54.944Z,101311.89
2022-10-11T16:04:22.773Z,101315.39
2022-10-11T16:06:50.487Z,101314.44
2022-10-11T16:09:18.217Z,101321.36
2022-10-11T16:11:46.028Z,101324.98
2022-10-11T16:14:13.771Z,101327.56
2022-10-11T16:16:41.523Z,101329.49
2022-10-11T16:19:09.646Z,101329.04
2022-10-11T16:21:37.415Z,101328.05
2022-10-11T16:24:05.375Z,101329.44
2022-10-11T16:26:33.360Z,101333.55
2022-10-11T16:29:01.236Z,101334.77
2022-10-11T16:31:29.204Z,101339.91
2022-10-11T16:33:57.864Z,101340.59
2022-10-11T16:36:40.846Z,101340.94
2022-10-11T16:39:13.760Z,101344.19
2022-10-11T16:41:42.848Z,101347.64
2022-10-11T16:44:15.684Z,101344.63
2022-10-11T16:46:48.150Z,101344.98
2022-10-11T16:49:18.656Z,101347.79
2022-10-11T16:51:46.400Z,101345.42
2022-10-11T16:54:19.300Z,101344.91
2022-10-11T16:56:49.691Z,101348.02
2022-10-11T16:59:17.901Z,101349.75
2022-10-11T17:01:46.479Z,101350.88
2022-10-11T17:04:14.964Z,101353.83
2022-10-11T17:06:44.249Z,101355.37
2022-10-11T17:09:12.320Z,101357.23
2022-10-11T17:11:40.900Z,101360.81
2022-10-11T17:14:10.612Z,101362.33
2022-10-11T17:16:38.475Z,101363.54
2022-10-11T17:19:09.908Z,101362.55
2022-10-11T17:21:38.653Z,101363.24
2022-10-11T17:24:07.461Z,101366.83
2022-10-11T17:26:35.276Z,101367.67
2022-10-11T17:29:03.069Z,101367.88
2022-10-11T17:31:31.098Z,101366.50
2022-10-11T17:34:00.725Z,101366.63
2022-10-11T17:36:32.062Z,101372.44
2022-10-11T17:39:04.736Z,101374.30
2022-10-11T17:41:32.586Z,101377.42
2022-10-11T17:44:01.872Z,101378.46
2022-10-11T17:46:32.873Z,101379.54
2022-10-11T17:49:04.928Z,101378.58
2022-10-11T17:51:35.084Z,101377.77
2022-10-11T17:54:03.989Z,101379.95
2022-10-11T17:56:37.438Z,101379.32
2022-10-11T17:59:06.724Z,101384.42
2022-10-11T18:01:35.065Z,101385.01
2022-10-11T18:04:05.039Z,101385.63
2022-10-11T18:06:38.884Z,101381.64
2022-10-11T18:09:06.978Z,101379.53
2022-10-11T18:11:35.481Z,101382.30
2022-10-11T18:14:04.595Z,101382.27
2022-10-11T18:16:33.130Z,101383.55
2022-10-11T18:19:03.969Z,101385.85
2022-10-11T18:21:34.500Z,101388.71
2022-10-11T18:24:05.091Z,101386.27
2022-10-11T18:26:32.882Z,101389.41
2022-10-11T18:29:00.917Z,101391.50
2022-10-11T18:31:30.531Z,101391.73
2022-10-11T18:33:58.353Z,101390.99
2022-10-11T18:36:29.336Z,101391.45
2022-10-11T18:38:59.989Z,101395.27
2022-10-11T18:41:31.717Z,101395.88
2022-10-11T18:44:05.078Z,101393.70
2022-10-11T18:46:33.619Z,101395.98
2022-10-11T18:49:02.320Z,101398.22
2022-10-11T18:51:33.937Z,101399.13
2022-10-11T18:54:02.469Z,101404.91
2022-10-11T18:56:32.495Z,101405.45
2022-10-11T18:59:00.318Z,101405.12
2022-10-11T19:01:31.172Z,101406.68
2022-10-11T19:04:00.396Z,101409.57
2022-10-11T19:06:31.772Z,101410.49
2022-10-11T19:09:11.783Z,101409.84
2022-10-11T19:11:40.563Z,101411.05
2022-10-11T19:14:14.890Z,101409.40
2022-10-11T19:16:51.690Z,101406.94
2022-10-11T19:19:22.583Z,101406.64
2022-10-11T19:21:50.667Z,101404.66
2022-10-11T19:24:21.127Z,101404.88
2022-10-11T19:26:50.515Z,101411.10
2022-10-11T19:29:20.089Z,101411.52
2022-10-11T19:31:56.405Z,101409.23
2022-10-11T19:34:30.038Z,101414.17
2022-10-11T19:37:00.839Z,101412.67
2022-10-11T19:39:29.782Z,101411.52
2022-10-11T19:41:57.645Z,101415.29
2022-10-11T19:44:25.427Z,101415.16
2022-10-11T19:46:53.408Z,101417.57
2022-10-11T19:49:25.061Z,101419.30
2022-10-11T19:51:53.884Z,101418.85
2022-10-11T19:54:22.410Z,101420.27
2022-10-11T19:56:50.551Z,101421.86
2022-10-11T19:59:18.970Z,101422.94
2022-10-11T20:01:52.354Z,101425.20
2022-10-11T20:07:09.598Z,101423.80
2022-10-11T20:09:37.367Z,101428.20
2022-10-11T20:12:05.807Z,101429.27
2022-10-11T20:14:33.658Z,101431.84
2022-10-11T20:17:01.382Z,101434.59
2022-10-11T20:19:31.211Z,101431.11
2022-10-11T20:22:01.182Z,101435.27
2022-10-11T20:24:33.488Z,101435.78
2022-10-11T20:27:06.598Z,101434.98
2022-10-11T20:29:34.879Z,101438.42
2022-10-11T20:32:02.934Z,101439.98
2022-10-11T20:34:31.176Z,101434.80
2022-10-11T20:36:59.319Z,101436.55
2022-10-11T20:39:27.279Z,101439.41
2022-10-11T20:41:55.142Z,101439.73
2022-10-11T20:44:23.216Z,101438.38
2022-10-11T20:46:51.397Z,101437.90
2022-10-11T20:49:20.162Z,101442.49
2022-10-11T20:51:48.511Z,101443.89
2022-10-11T20:54:16.931Z,101447.36
2022-10-11T20:56:44.793Z,101441.80
2022-10-11T20:59:12.692Z,101443.25
2022-10-11T21:01:41.838Z,101444.83
2022-10-11T21:04:17.917Z,101442.20
2022-10-11T21:06:47.345Z,101443.06
2022-10-11T21:09:17.037Z,101444.25
2022-10-11T21:11:45.015Z,101447.70
2022-10-11T21:14:12.915Z,101449.13
2022-10-11T21:16:40.700Z,101451.89
2022-10-11T21:19:13.396Z,101450.73
2022-10-11T21:21:41.577Z,101446.23
2022-10-11T21:24:09.850Z,101450.91
2022-10-11T21:26:37.656Z,101452.17
2022-10-11T21:29:05.618Z,101455.69
2022-10-11T21:31:34.570Z,101451.88
2022-10-11T21:34:05.406Z,101459.28
2022-10-11T21:36:33.753Z,101460.70
2022-10-11T21:39:01.658Z,101464.09
2022-10-11T21:41:34.134Z,101467.02
2022-10-11T21:44:01.995Z,101467.63
2022-10-11T21:47:01.163Z,101467.03
2022-10-11T21:49:20.136Z,101468.78
2022-10-11T21:51:48.630Z,101468.14
2022-10-11T21:54:17.029Z,101467.39
2022-10-11T21:56:44.877Z,101467.83
2022-10-11T21:59:12.921Z,101464.86
2022-10-11T22:01:42.065Z,101467.76
2022-10-11T22:04:11.168Z,101470.68
2022-10-11T22:06:39.733Z,101473.88
2022-10-11T22:09:08.689Z,101471.64
2022-10-11T22:11:37.642Z,101475.02
2022-10-11T22:14:06.000Z,101470.11
2022-10-11T22:16:35.230Z,101471.73
2022-10-11T22:19:03.651Z,101470.65
2022-10-11T22:21:32.131Z,101475.00
2022-10-11T22:24:00.257Z,101474.06
2022-10-11T22:26:30.817Z,101471.59
2022-10-11T22:29:00.246Z,101473.38
2022-10-11T22:31:29.336Z,101475.81
2022-10-11T22:33:59.247Z,101472.51
2022-10-11T22:36:30.750Z,101473.44
2022-10-11T22:38:59.067Z,101475.20
2022-10-11T22:41:27.043Z,101474.10
2022-10-11T22:43:54.797Z,101478.19
2022-10-11T22:46:22.630Z,101480.05
2022-10-11T22:48:50.386Z,101479.25
2022-10-11T22:51:18.176Z,101479.92
2022-10-11T22:53:46.057Z,101481.62
2022-10-11T22:56:14.253Z,101482.82
2022-10-11T22:58:42.125Z,101482.80
2022-10-11T23:01:12.532Z,101482.12
2022-10-11T23:03:40.474Z,101481.58
2022-10-11T23:06:09.044Z,101482.20
2022-10-11T23:08:36.831Z,101483.48
2022-10-11T23:11:06.658Z,101485.98
2022-10-11T23:13:35.234Z,101490.42
2022-10-11T23:16:11.802Z,101486.60
2022-10-11T23:18:39.765Z,101488.21
2022-10-11T23:21:08.555Z,101490.81
2022-10-11T23:23:36.620Z,101488.38
2022-10-11T23:26:07.661Z,101488.09
2022-10-11T23:28:36.226Z,101488.33
2022-10-11T23:31:12.729Z,101491.04
2022-10-11T23:33:41.073Z,101491.14
2022-10-11T23:36:17.745Z,101489.23
2022-10-11T23:38:50.651Z,101493.13
2022-10-11T23:41:18.610Z,101489.22
2022-10-11T23:43:46.580Z,101491.73
2022-10-11T23:46:14.452Z,101492.86
2022-10-11T23:48:42.412Z,101487.43
2022-10-11T23:51:10.689Z,101491.59
2022-10-11T23:53:38.553Z,101494.17
2022-10-11T23:56:07.433Z,101494.96
2022-10-11T23:58:35.420Z,101494.70
